sensor_id;sensor_type;location;lat;lon;timestamp;pressure;altitude;pressure_sealevel;temperature;humidity
78800;BME280;68148;55.328;86.106;2023-12-29T00:01:36;100059.16;;;-0.90;100.00
78800;BME280;68148;55.328;86.106;2023-12-29T00:04:03;100046.31;;;-0.92;100.00
78800;BME280;68148;55.328;86.106;2023-12-29T00:06:29;100042.59;;;-0.88;100.00
78800;BME280;68148;55.328;86.106;2023-12-29T00:08:55;100043.41;;;-0.87;100.00
78800;BME280;68148;55.328;86.106;2023-12-29T00:11:21;100033.25;;;-0.90;100.00
78800;BME280;68148;55.328;86.106;2023-12-29T00:13:47;100036.59;;;-0.88;100.00
78800;BME280;68148;55.328;86.106;2023-12-29T00:16:15;100027.03;;;-0.88;100.00
78800;BME280;68148;55.328;86.106;2023-12-29T00:18:41;100020.84;;;-0.85;100.00
78800;BME280;68148;55.328;86.106;2023-12-29T00:21:07;100019.16;;;-0.86;100.00
78800;BME280;68148;55.328;86.106;2023-12-29T00:23:32;100015.03;;;-0.89;100.00
78800;BME280;68148;55.328;86.106;2023-12-29T00:25:58;100007.03;;;-0.86;100.00
78800;BME280;68148;55.328;86.106;2023-12-29T00:28:24;100005.19;;;-0.84;100.00
78800;BME280;68148;55.328;86.106;2023-12-29T00:30:50;100004.72;;;-0.78;100.00
78800;BME280;68148;55.328;86.106;2023-12-29T00:33:17;100004.03;;;-0.80;100.00
78800;BME280;68148;55.328;86.106;2023-12-29T00:35:42;99997.91;;;-0.79;100.00
78800;BME280;68148;55.328;86.106;2023-12-29T00:38:08;100005.47;;;-0.76;100.00
78800;BME280;68148;55.328;86.106;2023-12-29T00:40:34;99997.56;;;-0.74;100.00
78800;BME280;68148;55.328;86.106;2023-12-29T00:43:01;99993.63;;;-0.67;100.00
78800;BME280;68148;55.328;86.106;2023-12-29T00:45:27;99995.16;;;-0.64;100.00
78800;BME280;68148;55.328;86.106;2023-12-29T00:47:53;99993.31;;;-0.62;100.00
78800;BME280;68148;55.328;86.106;2023-12-29T00:50:19;99993.31;;;-0.62;100.00
78800;BME280;68148;55.328;86.106;2023-12-29T00:52:45;99992.47;;;-0.63;100.00
78800;BME280;68148;55.328;86.106;2023-12-29T00:55:10;99986.34;;;-0.62;100.00
78800;BME280;68148;55.328;86.106;2023-12-29T00:57:38;99990.88;;;-0.53;100.00
78800;BME280;68148;55.328;86.106;2023-12-29T01:00:05;99977.59;;;-0.48;100.00
78800;BME280;68148;55.328;86.106;2023-12-29T01:02:31;99974.91;;;-0.46;100.00
78800;BME280;68148;55.328;86.106;2023-12-29T01:04:57;99975.72;;;-0.46;100.00
78800;BME280;68148;55.328;86.106;2023-12-29T01:07:22;99979.97;;;-0.45;100.00
78800;BME280;68148;55.328;86.106;2023-12-29T01:09:48;99974.56;;;-0.42;100.00
78800;BME280;68148;55.328;86.106;2023-12-29T01:12:14;99971.16;;;-0.42;99.64
78800;BME280;68148;55.328;86.106;2023-12-29T01:14:40;99977.16;;;-0.42;100.00
78800;BME280;68148;55.328;86.106;2023-12-29T01:17:06;99959.94;;;-0.43;99.62
78800;BME280;68148;55.328;86.106;2023-12-29T01:19:32;99963.75;;;-0.36;100.00
78800;BME280;68148;55.328;86.106;2023-12-29T01:21:58;99963.97;;;-0.39;99.23
78800;BME280;68148;55.328;86.106;2023-12-29T01:24:25;99968.22;;;-0.38;99.66
78800;BME280;68148;55.328;86.106;2023-12-29T01:26:52;99965.63;;;-0.38;98.38
78800;BME280;68148;55.328;86.106;2023-12-29T01:29:18;99957.84;;;-0.38;100.00
78800;BME280;68148;55.328;86.106;2023-12-29T01:31:44;99956.91;;;-0.37;99.75
78800;BME280;68148;55.328;86.106;2023-12-29T01:34:10;99955.97;;;-0.36;100.00
78800;BME280;68148;55.328;86.106;2023-12-29T01:36:35;99945.59;;;-0.36;98.33
78800;BME280;68148;55.328;86.106;2023-12-29T01:39:01;99948.78;;;-0.32;100.00
78800;BME280;68148;55.328;86.106;2023-12-29T01:41:27;99947.38;;;-0.36;98.69
78800;BME280;68148;55.328;86.106;2023-12-29T01:46:24;99935.22;;;-0.36;98.71
78800;BME280;68148;55.328;86.106;2023-12-29T01:48:50;99932.53;;;-0.34;98.70
78800;BME280;68148;55.328;86.106;2023-12-29T01:51:17;99927.44;;;-0.36;99.10
78800;BME280;68148;55.328;86.106;2023-12-29T01:53:44;99934.19;;;-0.33;98.62
78800;BME280;68148;55.328;86.106;2023-12-29T01:56:10;99930.78;;;-0.34;98.36
78800;BME280;68148;55.328;86.106;2023-12-29T01:58:37;99927.66;;;-0.39;98.23
78800;BME280;68148;55.328;86.106;2023-12-29T02:01:06;99922.59;;;-0.40;98.52
78800;BME280;68148;55.328;86.106;2023-12-29T02:03:33;99919.06;;;-0.39;98.09
78800;BME280;68148;55.328;86.106;2023-12-29T02:05:59;99914.34;;;-0.45;98.54
78800;BME280;68148;55.328;86.106;2023-12-29T02:08:25;99908.94;;;-0.42;100.00
78800;BME280;68148;55.328;86.106;2023-12-29T02:10:58;99908.75;;;-0.52;99.20
78800;BME280;68148;55.328;86.106;2023-12-29T02:13:24;99908.38;;;-0.59;99.28
78800;BME280;68148;55.328;86.106;2023-12-29T02:15:54;99909.75;;;-0.66;99.92
78800;BME280;68148;55.328;86.106;2023-12-29T02:18:24;99911.66;;;-0.68;100.00
78800;BME280;68148;55.328;86.106;2023-12-29T02:20:51;99912.06;;;-0.74;100.00
78800;BME280;68148;55.328;86.106;2023-12-29T02:23:17;99910.09;;;-0.70;99.67
78800;BME280;68148;55.328;86.106;2023-12-29T02:25:43;99902.53;;;-0.73;99.92
78800;BME280;68148;55.328;86.106;2023-12-29T02:28:37;99907.72;;;-0.73;100.00
78800;BME280;68148;55.328;86.106;2023-12-29T02:31:10;99901.00;;;-0.76;100.00
78800;BME280;68148;55.328;86.106;2023-12-29T02:33:40;99897.13;;;-0.70;100.00
78800;BME280;68148;55.328;86.106;2023-12-29T02:36:10;99888.31;;;-0.68;100.00
78800;BME280;68148;55.328;86.106;2023-12-29T02:38:36;99877.28;;;-0.83;99.86
78800;BME280;68148;55.328;86.106;2023-12-29T02:41:02;99873.66;;;-0.80;100.00
78800;BME280;68148;55.328;86.106;2023-12-29T02:43:28;99879.03;;;-0.83;100.00
78800;BME280;68148;55.328;86.106;2023-12-29T02:45:56;99877.72;;;-0.89;100.00
78800;BME280;68148;55.328;86.106;2023-12-29T02:48:22;99878.69;;;-0.90;100.00
78800;BME280;68148;55.328;86.106;2023-12-29T02:50:48;99878.22;;;-0.84;100.00
78800;BME280;68148;55.328;86.106;2023-12-29T02:53:14;99870.44;;;-0.84;100.00
78800;BME280;68148;55.328;86.106;2023-12-29T02:55:39;99861.91;;;-0.97;100.00
78800;BME280;68148;55.328;86.106;2023-12-29T02:58:05;99855.56;;;-0.93;100.00
78800;BME280;68148;55.328;86.106;2023-12-29T03:00:31;99848.00;;;-0.96;99.88
78800;BME280;68148;55.328;86.106;2023-12-29T03:02:57;99840.16;;;-1.07;100.00
78800;BME280;68148;55.328;86.106;2023-12-29T03:05:22;99839.69;;;-1.12;100.00
78800;BME280;68148;55.328;86.106;2023-12-29T03:07:48;99839.75;;;-1.01;99.92
78800;BME280;68148;55.328;86.106;2023-12-29T03:10:14;99838.19;;;-1.04;99.63
78800;BME280;68148;55.328;86.106;2023-12-29T03:12:40;99834.16;;;-1.08;99.45
78800;BME280;68148;55.328;86.106;2023-12-29T03:15:05;99832.16;;;-1.15;99.48
78800;BME280;68148;55.328;86.106;2023-12-29T03:17:31;99825.75;;;-1.22;99.62
78800;BME280;68148;55.328;86.106;2023-12-29T03:19:59;99816.03;;;-1.32;100.00
78800;BME280;68148;55.328;86.106;2023-12-29T03:22:25;99814.97;;;-1.29;99.39
78800;BME280;68148;55.328;86.106;2023-12-29T03:24:50;99811.56;;;-1.30;99.35
78800;BME280;68148;55.328;86.106;2023-12-29T03:27:16;99821.63;;;-1.38;99.31
78800;BME280;68148;55.328;86.106;2023-12-29T03:29:42;99806.69;;;-1.21;98.90
78800;BME280;68148;55.328;86.106;2023-12-29T03:32:08;99808.69;;;-1.38;99.15
78800;BME280;68148;55.328;86.106;2023-12-29T03:34:34;99806.06;;;-1.25;99.05
78800;BME280;68148;55.328;86.106;2023-12-29T03:37:00;99800.19;;;-1.27;98.92
78800;BME280;68148;55.328;86.106;2023-12-29T03:39:26;99790.47;;;-1.36;99.10
78800;BME280;68148;55.328;86.106;2023-12-29T03:41:52;99786.84;;;-1.34;98.96
78800;BME280;68148;55.328;86.106;2023-12-29T03:44:17;99781.28;;;-1.40;99.03
78800;BME280;68148;55.328;86.106;2023-12-29T03:46:43;99782.47;;;-1.33;98.62
78800;BME280;68148;55.328;86.106;2023-12-29T03:49:09;99777.81;;;-1.28;99.68
78800;BME280;68148;55.328;86.106;2023-12-29T03:51:35;99777.78;;;-1.15;98.03
78800;BME280;68148;55.328;86.106;2023-12-29T03:54:01;99771.38;;;-1.22;98.35
78800;BME280;68148;55.328;86.106;2023-12-29T03:56:26;99771.50;;;-1.24;97.72
78800;BME280;68148;55.328;86.106;2023-12-29T03:58:52;99766.72;;;-1.30;97.97
78800;BME280;68148;55.328;86.106;2023-12-29T04:01:18;99770.00;;;-1.15;97.58
78800;BME280;68148;55.328;86.106;2023-12-29T04:03:44;99760.53;;;-1.28;97.45
78800;BME280;68148;55.328;86.106;2023-12-29T04:06:10;99753.66;;;-1.29;96.80
78800;BME280;68148;55.328;86.106;2023-12-29T04:08:36;99751.75;;;-1.14;97.04
78800;BME280;68148;55.328;86.106;2023-12-29T04:11:04;99751.34;;;-1.20;96.94
78800;BME280;68148;55.328;86.106;2023-12-29T04:13:30;99740.78;;;-1.17;96.55
78800;BME280;68148;55.328;86.106;2023-12-29T04:15:56;99741.19;;;-1.11;96.59
78800;BME280;68148;55.328;86.106;2023-12-29T04:18:29;99731.41;;;-1.07;96.77
78800;BME280;68148;55.328;86.106;2023-12-29T04:20:56;99730.25;;;-1.03;95.74
78800;BME280;68148;55.328;86.106;2023-12-29T04:23:21;99722.84;;;-0.96;96.39
78800;BME280;68148;55.328;86.106;2023-12-29T04:25:47;99722.84;;;-0.96;95.24
78800;BME280;68148;55.328;86.106;2023-12-29T04:28:13;99723.19;;;-1.01;94.93
78800;BME280;68148;55.328;86.106;2023-12-29T04:30:39;99719.94;;;-0.92;95.41
78800;BME280;68148;55.328;86.106;2023-12-29T04:33:04;99717.69;;;-0.96;95.49
78800;BME280;68148;55.328;86.106;2023-12-29T04:35:30;99716.50;;;-0.92;95.11
78800;BME280;68148;55.328;86.106;2023-12-29T04:37:56;99711.69;;;-0.97;95.07
78800;BME280;68148;55.328;86.106;2023-12-29T04:40:22;99701.22;;;-0.84;95.51
78800;BME280;68148;55.328;86.106;2023-12-29T04:42:47;99707.94;;;-0.82;95.12
78800;BME280;68148;55.328;86.106;2023-12-29T04:45:15;99699.94;;;-0.79;95.19
78800;BME280;68148;55.328;86.106;2023-12-29T04:47:41;99698.16;;;-0.89;94.57
78800;BME280;68148;55.328;86.106;2023-12-29T04:50:07;99691.81;;;-0.74;94.59
78800;BME280;68148;55.328;86.106;2023-12-29T04:52:33;99690.88;;;-0.73;94.36
78800;BME280;68148;55.328;86.106;2023-12-29T04:54:58;99684.16;;;-0.64;93.90
78800;BME280;68148;55.328;86.106;2023-12-29T04:57:38;99680.97;;;-0.79;92.50
78800;BME280;68148;55.328;86.106;2023-12-29T05:00:04;99675.22;;;-0.71;93.06
78800;BME280;68148;55.328;86.106;2023-12-29T05:02:30;99670.75;;;-0.58;92.66
78800;BME280;68148;55.328;86.106;2023-12-29T05:04:56;99659.44;;;-0.68;91.58
78800;BME280;68148;55.328;86.106;2023-12-29T05:07:23;99652.75;;;-0.60;93.05
78800;BME280;68148;55.328;86.106;2023-12-29T05:09:49;99638.25;;;-0.62;92.77
78800;BME280;68148;55.328;86.106;2023-12-29T05:12:19;99640.72;;;-0.61;92.06
78800;BME280;68148;55.328;86.106;2023-12-29T05:14:45;99642.03;;;-0.55;92.38
78800;BME280;68148;55.328;86.106;2023-12-29T05:17:11;99637.41;;;-0.52;92.51
78800;BME280;68148;55.328;86.106;2023-12-29T05:19:37;99632.22;;;-0.40;92.24
78800;BME280;68148;55.328;86.106;2023-12-29T05:22:03;99627.38;;;-0.56;92.01
78800;BME280;68148;55.328;86.106;2023-12-29T05:24:29;99625.28;;;-0.51;91.99
78800;BME280;68148;55.328;86.106;2023-12-29T05:26:55;99624.94;;;-0.46;91.33
78800;BME280;68148;55.328;86.106;2023-12-29T05:29:32;99617.13;;;-0.35;92.11
78800;BME280;68148;55.328;86.106;2023-12-29T05:31:58;99612.22;;;-0.38;91.99
78800;BME280;68148;55.328;86.106;2023-12-29T05:34:23;99606.66;;;-0.34;91.90
78800;BME280;68148;55.328;86.106;2023-12-29T05:36:49;99604.75;;;-0.20;91.48
78800;BME280;68148;55.328;86.106;2023-12-29T05:39:15;99596.72;;;-0.17;91.34
78800;BME280;68148;55.328;86.106;2023-12-29T05:41:41;99603.81;;;-0.19;90.29
78800;BME280;68148;55.328;86.106;2023-12-29T05:44:07;99599.66;;;-0.22;90.87
78800;BME280;68148;55.328;86.106;2023-12-29T05:46:33;99602.88;;;-0.41;90.32
78800;BME280;68148;55.328;86.106;2023-12-29T05:48:58;99594.63;;;-0.35;90.25
78800;BME280;68148;55.328;86.106;2023-12-29T05:51:24;99598.84;;;-0.22;90.99
78800;BME280;68148;55.328;86.106;2023-12-29T05:53:50;99586.09;;;-0.14;91.79
78800;BME280;68148;55.328;86.106;2023-12-29T05:56:16;99583.81;;;0.04;89.58
78800;BME280;68148;55.328;86.106;2023-12-29T05:58:42;99584.53;;;-0.06;89.13
78800;BME280;68148;55.328;86.106;2023-12-29T06:01:08;99574.69;;;-0.12;89.61
78800;BME280;68148;55.328;86.106;2023-12-29T06:03:34;99572.88;;;0.00;89.39
78800;BME280;68148;55.328;86.106;2023-12-29T06:06:00;99564.97;;;0.02;89.69
78800;BME280;68148;55.328;86.106;2023-12-29T06:08:26;99554.88;;;0.19;89.63
78800;BME280;68148;55.328;86.106;2023-12-29T06:10:52;99556.78;;;0.17;89.36
78800;BME280;68148;55.328;86.106;2023-12-29T06:13:18;99547.47;;;0.15;88.03
78800;BME280;68148;55.328;86.106;2023-12-29T06:15:44;99537.66;;;0.18;88.52
78800;BME280;68148;55.328;86.106;2023-12-29T06:18:11;99528.28;;;0.27;89.11
78800;BME280;68148;55.328;86.106;2023-12-29T06:20:45;99528.97;;;0.29;87.87
78800;BME280;68148;55.328;86.106;2023-12-29T06:23:11;99522.19;;;0.17;88.08
78800;BME280;68148;55.328;86.106;2023-12-29T06:25:36;99521.88;;;0.10;87.98
78800;BME280;68148;55.328;86.106;2023-12-29T06:28:03;99526.19;;;0.21;88.63
78800;BME280;68148;55.328;86.106;2023-12-29T06:30:28;99514.31;;;0.18;88.54
78800;BME280;68148;55.328;86.106;2023-12-29T06:32:54;99513.41;;;0.29;88.02
78800;BME280;68148;55.328;86.106;2023-12-29T06:35:20;99512.28;;;0.22;88.61
78800;BME280;68148;55.328;86.106;2023-12-29T06:37:46;99505.03;;;0.25;87.98
78800;BME280;68148;55.328;86.106;2023-12-29T06:40:12;99495.19;;;0.19;87.64
78800;BME280;68148;55.328;86.106;2023-12-29T06:42:38;99493.47;;;0.30;88.50
78800;BME280;68148;55.328;86.106;2023-12-29T06:45:04;99488.34;;;0.18;88.13
78800;BME280;68148;55.328;86.106;2023-12-29T06:47:30;99501.81;;;0.33;88.05
78800;BME280;68148;55.328;86.106;2023-12-29T06:49:56;99493.09;;;0.34;86.91
78800;BME280;68148;55.328;86.106;2023-12-29T06:52:22;99485.03;;;0.16;87.38
78800;BME280;68148;55.328;86.106;2023-12-29T06:54:48;99479.84;;;0.16;87.93
78800;BME280;68148;55.328;86.106;2023-12-29T06:57:20;99472.88;;;0.17;87.83
78800;BME280;68148;55.328;86.106;2023-12-29T06:59:46;99463.22;;;0.19;87.64
78800;BME280;68148;55.328;86.106;2023-12-29T07:02:12;99475.97;;;0.22;87.64
78800;BME280;68148;55.328;86.106;2023-12-29T07:04:41;99477.22;;;0.28;87.43
78800;BME280;68148;55.328;86.106;2023-12-29T07:07:07;99472.13;;;0.47;87.31
78800;BME280;68148;55.328;86.106;2023-12-29T07:09:33;99464.91;;;0.30;86.91
78800;BME280;68148;55.328;86.106;2023-12-29T07:12:01;99464.28;;;0.37;87.00
78800;BME280;68148;55.328;86.106;2023-12-29T07:14:27;99454.44;;;0.31;86.13
78800;BME280;68148;55.328;86.106;2023-12-29T07:16:52;99447.75;;;0.38;87.84
78800;BME280;68148;55.328;86.106;2023-12-29T07:19:18;99441.50;;;0.41;86.80
78800;BME280;68148;55.328;86.106;2023-12-29T07:21:44;99433.03;;;0.39;86.99
78800;BME280;68148;55.328;86.106;2023-12-29T07:24:10;99428.50;;;0.41;86.34
78800;BME280;68148;55.328;86.106;2023-12-29T07:26:36;99414.97;;;0.37;86.79
78800;BME280;68148;55.328;86.106;2023-12-29T07:29:02;99410.91;;;0.44;86.67
78800;BME280;68148;55.328;86.106;2023-12-29T07:31:27;99396.38;;;0.32;87.28
78800;BME280;68148;55.328;86.106;2023-12-29T07:33:55;99392.03;;;0.42;85.52
78800;BME280;68148;55.328;86.106;2023-12-29T07:36:21;99386.91;;;0.21;86.33
78800;BME280;68148;55.328;86.106;2023-12-29T07:38:46;99380.06;;;0.20;86.47
78800;BME280;68148;55.328;86.106;2023-12-29T07:41:12;99370.16;;;0.35;86.66
78800;BME280;68148;55.328;86.106;2023-12-29T07:43:38;99367.81;;;0.32;85.83
78800;BME280;68148;55.328;86.106;2023-12-29T07:46:04;99356.69;;;0.20;86.56
78800;BME280;68148;55.328;86.106;2023-12-29T07:48:30;99351.00;;;0.27;87.28
78800;BME280;68148;55.328;86.106;2023-12-29T07:50:58;99342.50;;;0.24;86.81
78800;BME280;68148;55.328;86.106;2023-12-29T07:53:25;99342.25;;;0.28;87.16
78800;BME280;68148;55.328;86.106;2023-12-29T07:55:50;99341.00;;;0.22;86.98
78800;BME280;68148;55.328;86.106;2023-12-29T07:58:16;99339.75;;;0.16;87.54
78800;BME280;68148;55.328;86.106;2023-12-29T08:00:42;99338.69;;;0.19;87.98
78800;BME280;68148;55.328;86.106;2023-12-29T08:03:08;99328.28;;;0.19;87.67
78800;BME280;68148;55.328;86.106;2023-12-29T08:05:34;99321.00;;;0.13;87.63
78800;BME280;68148;55.328;86.106;2023-12-29T08:08:00;99334.56;;;0.16;87.98
78800;BME280;68148;55.328;86.106;2023-12-29T08:10:26;99324.69;;;0.10;88.80
78800;BME280;68148;55.328;86.106;2023-12-29T08:12:52;99313.09;;;-0.16;89.13
78800;BME280;68148;55.328;86.106;2023-12-29T08:15:18;99316.94;;;-0.11;89.00
78800;BME280;68148;55.328;86.106;2023-12-29T08:17:43;99308.78;;;-0.06;88.90
78800;BME280;68148;55.328;86.106;2023-12-29T08:20:10;99300.63;;;-0.02;89.15
78800;BME280;68148;55.328;86.106;2023-12-29T08:22:36;99304.16;;;-0.03;88.73
78800;BME280;68148;55.328;86.106;2023-12-29T08:25:03;99294.03;;;-0.06;88.80
78800;BME280;68148;55.328;86.106;2023-12-29T08:27:29;99279.84;;;-0.02;88.88
78800;BME280;68148;55.328;86.106;2023-12-29T08:29:55;99274.69;;;0.08;88.56
78800;BME280;68148;55.328;86.106;2023-12-29T08:32:21;99265.19;;;0.09;87.87
78800;BME280;68148;55.328;86.106;2023-12-29T08:34:46;99255.84;;;-0.04;88.55
78800;BME280;68148;55.328;86.106;2023-12-29T08:37:12;99247.34;;;-0.06;88.35
78800;BME280;68148;55.328;86.106;2023-12-29T08:39:38;99238.75;;;-0.06;88.77
78800;BME280;68148;55.328;86.106;2023-12-29T08:42:04;99250.25;;;0.01;88.25
78800;BME280;68148;55.328;86.106;2023-12-29T08:44:30;99229.78;;;0.08;88.24
78800;BME280;68148;55.328;86.106;2023-12-29T08:46:56;99212.84;;;0.04;87.63
78800;BME280;68148;55.328;86.106;2023-12-29T08:49:21;99210.06;;;-0.14;88.11
78800;BME280;68148;55.328;86.106;2023-12-29T08:51:47;99203.41;;;-0.07;87.91
78800;BME280;68148;55.328;86.106;2023-12-29T08:54:13;99200.16;;;0.01;87.31
78800;BME280;68148;55.328;86.106;2023-12-29T08:56:39;99197.41;;;-0.08;87.79
78800;BME280;68148;55.328;86.106;2023-12-29T08:59:05;99192.69;;;-0.23;88.36
78800;BME280;68148;55.328;86.106;2023-12-29T09:01:31;99190.53;;;-0.18;88.39
78800;BME280;68148;55.328;86.106;2023-12-29T09:03:56;99181.41;;;-0.13;88.34
78800;BME280;68148;55.328;86.106;2023-12-29T09:06:22;99166.75;;;-0.23;88.34
78800;BME280;68148;55.328;86.106;2023-12-29T09:08:48;99157.34;;;-0.24;88.64
78800;BME280;68148;55.328;86.106;2023-12-29T09:11:14;99165.22;;;-0.36;88.77
78800;BME280;68148;55.328;86.106;2023-12-29T09:13:40;99158.00;;;-0.32;89.01
78800;BME280;68148;55.328;86.106;2023-12-29T09:16:06;99160.19;;;-0.28;89.43
78800;BME280;68148;55.328;86.106;2023-12-29T09:18:32;99152.66;;;-0.31;89.35
78800;BME280;68148;55.328;86.106;2023-12-29T09:20:57;99144.44;;;-0.45;89.53
78800;BME280;68148;55.328;86.106;2023-12-29T09:23:23;99133.25;;;-0.46;89.75
78800;BME280;68148;55.328;86.106;2023-12-29T09:25:49;99124.00;;;-0.39;89.35
78800;BME280;68148;55.328;86.106;2023-12-29T09:28:15;99121.97;;;-0.35;88.98
78800;BME280;68148;55.328;86.106;2023-12-29T09:30:43;99105.44;;;-0.44;88.68
78800;BME280;68148;55.328;86.106;2023-12-29T09:33:09;99093.59;;;-0.37;88.73
78800;BME280;68148;55.328;86.106;2023-12-29T09:35:34;99080.59;;;-0.46;88.91
78800;BME280;68148;55.328;86.106;2023-12-29T09:38:00;99075.53;;;-0.48;89.04
78800;BME280;68148;55.328;86.106;2023-12-29T09:40:26;99078.03;;;-0.37;96.34
78800;BME280;68148;55.328;86.106;2023-12-29T09:42:52;99062.47;;;-0.37;91.77
78800;BME280;68148;55.328;86.106;2023-12-29T09:45:23;99055.13;;;-0.32;90.10
78800;BME280;68148;55.328;86.106;2023-12-29T09:47:51;99038.59;;;-0.31;88.61
78800;BME280;68148;55.328;86.106;2023-12-29T09:50:17;99032.50;;;-0.30;89.21
78800;BME280;68148;55.328;86.106;2023-12-29T09:52:49;99024.00;;;-0.32;89.56
78800;BME280;68148;55.328;86.106;2023-12-29T09:55:15;99007.50;;;-0.40;88.69
78800;BME280;68148;55.328;86.106;2023-12-29T09:57:40;99005.72;;;-0.40;90.09
78800;BME280;68148;55.328;86.106;2023-12-29T10:00:11;98993.59;;;-0.30;88.49
78800;BME280;68148;55.328;86.106;2023-12-29T10:02:37;98987.72;;;-0.22;90.81
78800;BME280;68148;55.328;86.106;2023-12-29T10:05:04;98990.97;;;-0.49;88.47
78800;BME280;68148;55.328;86.106;2023-12-29T10:07:35;98976.13;;;-0.37;88.66
78800;BME280;68148;55.328;86.106;2023-12-29T10:10:02;98984.28;;;-0.52;89.03
78800;BME280;68148;55.328;86.106;2023-12-29T10:12:29;98980.34;;;-0.56;88.25
78800;BME280;68148;55.328;86.106;2023-12-29T10:15:06;98976.66;;;-0.43;88.46
78800;BME280;68148;55.328;86.106;2023-12-29T10:23:05;98934.22;;;-0.62;88.90
78800;BME280;68148;55.328;86.106;2023-12-29T10:25:31;98936.13;;;-0.54;88.86
78800;BME280;68148;55.328;86.106;2023-12-29T10:27:57;98948.53;;;-0.48;88.48
78800;BME280;68148;55.328;86.106;2023-12-29T10:30:23;98945.53;;;-0.43;87.47
78800;BME280;68148;55.328;86.106;2023-12-29T10:32:52;98926.19;;;-0.49;87.88
78800;BME280;68148;55.328;86.106;2023-12-29T10:35:18;98906.97;;;-0.46;87.45
78800;BME280;68148;55.328;86.106;2023-12-29T10:37:44;98910.38;;;-0.46;87.56
78800;BME280;68148;55.328;86.106;2023-12-29T10:40:17;98910.63;;;-0.39;86.68
78800;BME280;68148;55.328;86.106;2023-12-29T10:42:53;98913.06;;;-0.47;86.68
78800;BME280;68148;55.328;86.106;2023-12-29T10:45:19;98902.44;;;-0.44;86.66
78800;BME280;68148;55.328;86.106;2023-12-29T10:47:45;98921.41;;;-0.44;86.46
78800;BME280;68148;55.328;86.106;2023-12-29T10:50:11;98941.47;;;-0.46;86.45
78800;BME280;68148;55.328;86.106;2023-12-29T10:52:37;98938.31;;;-0.49;86.47
78800;BME280;68148;55.328;86.106;2023-12-29T10:55:08;98934.91;;;-0.50;87.28
78800;BME280;68148;55.328;86.106;2023-12-29T10:57:35;98928.34;;;-0.44;86.79
78800;BME280;68148;55.328;86.106;2023-12-29T11:00:02;98911.31;;;-0.47;86.56
78800;BME280;68148;55.328;86.106;2023-12-29T11:02:28;98906.00;;;-0.45;86.10
78800;BME280;68148;55.328;86.106;2023-12-29T11:07:43;98891.94;;;-0.43;85.44
78800;BME280;68148;55.328;86.106;2023-12-29T11:10:10;98882.41;;;-0.42;85.56
78800;BME280;68148;55.328;86.106;2023-12-29T11:12:37;98878.69;;;-0.40;85.82
78800;BME280;68148;55.328;86.106;2023-12-29T11:15:05;98863.28;;;-0.41;85.23
78800;BME280;68148;55.328;86.106;2023-12-29T11:17:31;98844.31;;;-0.32;84.92
78800;BME280;68148;55.328;86.106;2023-12-29T11:19:59;98827.13;;;-0.33;84.44
78800;BME280;68148;55.328;86.106;2023-12-29T11:22:28;98827.78;;;-0.21;83.93
78800;BME280;68148;55.328;86.106;2023-12-29T11:24:54;98820.97;;;-0.22;83.93
78800;BME280;68148;55.328;86.106;2023-12-29T11:27:21;98813.88;;;-0.30;84.09
78800;BME280;68148;55.328;86.106;2023-12-29T11:29:47;98803.00;;;-0.34;84.50
78800;BME280;68148;55.328;86.106;2023-12-29T11:32:25;98788.09;;;-0.32;84.22
78800;BME280;68148;55.328;86.106;2023-12-29T11:35:11;98780.91;;;-0.38;84.69
78800;BME280;68148;55.328;86.106;2023-12-29T11:40:41;98791.81;;;-0.34;84.55
78800;BME280;68148;55.328;86.106;2023-12-29T11:43:16;98793.97;;;-0.39;84.94
78800;BME280;68148;55.328;86.106;2023-12-29T11:45:45;98811.31;;;-0.40;84.85
78800;BME280;68148;55.328;86.106;2023-12-29T11:48:58;98802.88;;;-0.42;85.52
78800;BME280;68148;55.328;86.106;2023-12-29T11:51:38;98803.28;;;-0.46;85.42
78800;BME280;68148;55.328;86.106;2023-12-29T11:54:05;98803.94;;;-0.44;85.36
78800;BME280;68148;55.328;86.106;2023-12-29T11:56:34;98819.91;;;-0.39;84.76
78800;BME280;68148;55.328;86.106;2023-12-29T12:04:36;98789.47;;;-0.28;84.89
78800;BME280;68148;55.328;86.106;2023-12-29T12:07:04;98778.50;;;-0.21;85.21
78800;BME280;68148;55.328;86.106;2023-12-29T12:09:30;98765.53;;;-0.21;83.55
78800;BME280;68148;55.328;86.106;2023-12-29T12:11:56;98737.03;;;-0.21;83.94
78800;BME280;68148;55.328;86.106;2023-12-29T12:14:47;98682.47;;;-0.20;83.17
78800;BME280;68148;55.328;86.106;2023-12-29T12:17:29;98667.03;;;-0.21;82.70
78800;BME280;68148;55.328;86.106;2023-12-29T12:20:00;98624.97;;;-0.15;82.80
78800;BME280;68148;55.328;86.106;2023-12-29T12:22:29;98619.50;;;-0.12;82.50
78800;BME280;68148;55.328;86.106;2023-12-29T12:24:56;98606.63;;;-0.04;82.52
78800;BME280;68148;55.328;86.106;2023-12-29T12:27:22;98615.34;;;-0.05;82.98
78800;BME280;68148;55.328;86.106;2023-12-29T12:29:49;98626.75;;;-0.16;83.31
78800;BME280;68148;55.328;86.106;2023-12-29T12:32:16;98624.88;;;-0.23;83.86
78800;BME280;68148;55.328;86.106;2023-12-29T12:34:43;98612.59;;;-0.21;83.83
78800;BME280;68148;55.328;86.106;2023-12-29T12:37:09;98641.03;;;-0.30;84.32
78800;BME280;68148;55.328;86.106;2023-12-29T12:39:41;98643.91;;;-0.33;84.02
78800;BME280;68148;55.328;86.106;2023-12-29T12:42:06;98624.78;;;-0.32;84.10
78800;BME280;68148;55.328;86.106;2023-12-29T12:44:32;98622.03;;;-0.30;84.54
78800;BME280;68148;55.328;86.106;2023-12-29T12:47:00;98632.38;;;-0.20;82.89
78800;BME280;68148;55.328;86.106;2023-12-29T12:49:29;98630.59;;;-0.20;83.18
78800;BME280;68148;55.328;86.106;2023-12-29T12:51:55;98633.31;;;-0.21;82.91
78800;BME280;68148;55.328;86.106;2023-12-29T12:54:21;98641.50;;;-0.16;83.07
78800;BME280;68148;55.328;86.106;2023-12-29T12:56:47;98629.19;;;-0.14;83.18
78800;BME280;68148;55.328;86.106;2023-12-29T12:59:14;98629.28;;;-0.06;83.19
78800;BME280;68148;55.328;86.106;2023-12-29T13:01:41;98627.66;;;-0.07;82.16
78800;BME280;68148;55.328;86.106;2023-12-29T13:04:16;98610.69;;;-0.02;82.45
78800;BME280;68148;55.328;86.106;2023-12-29T13:06:44;98628.94;;;0.07;82.55
78800;BME280;68148;55.328;86.106;2023-12-29T13:09:10;98615.38;;;0.13;81.47